createdAt,value
2022-08-26T00:04:37.601Z,5.63
2022-08-26T00:14:59.262Z,5.85
2022-08-26T00:25:22.718Z,5.32
2022-08-26T00:35:45.321Z,5.82
2022-08-26T00:46:13.941Z,6.05
2022-08-26T00:56:48.592Z,5.22
2022-08-26T01:07:10.580Z,6.28
2022-08-26T01:17:33.749Z,6.22
2022-08-26T01:27:58.788Z,6.45
2022-08-26T01:38:20.539Z,6.72
2022-08-26T01:48:46.810Z,6.75
2022-08-26T01:59:13.565Z,6.70
2022-08-26T02:09:42.548Z,6.90
2022-08-26T02:20:05.241Z,7.20
2022-08-26T02:30:32.067Z,7.45
2022-08-26T02:40:53.614Z,7.32
2022-08-26T02:51:15.182Z,7.13
2022-08-26T03:01:37.171Z,7.47
2022-08-26T03:11:59.620Z,7.40
2022-08-26T03:22:21.394Z,7.63
2022-08-26T03:32:44.511Z,8.30
2022-08-26T03:43:07.511Z,8.30
2022-08-26T03:53:31.422Z,8.25
2022-08-26T04:04:00.304Z,8.25
2022-08-26T04:14:24.490Z,8.18
2022-08-26T04:24:46.402Z,8.32
2022-08-26T04:35:08.245Z,7.93
2022-08-26T04:45:30.687Z,8.70
2022-08-26T04:55:52.485Z,8.95
2022-08-26T05:06:17.214Z,8.90
2022-08-26T05:16:40.707Z,9.00
2022-08-26T05:27:03.199Z,9.00
2022-08-26T05:37:33.115Z,9.60
2022-08-26T05:47:56.017Z,10.65
2022-08-26T05:58:20.912Z,11.57
2022-08-26T06:08:43.814Z,10.68
2022-08-26T06:19:11.067Z,12.10
2022-08-26T06:29:34.966Z,11.98
2022-08-26T06:39:57.861Z,12.27
2022-08-26T06:50:19.417Z,10.90
2022-08-26T07:00:41.634Z,10.50
2022-08-26T07:11:11.204Z,11.20
2022-08-26T07:21:34.050Z,11.73
2022-08-26T07:31:56.318Z,11.82
2022-08-26T07:42:20.427Z,11.32
2022-08-26T07:52:42.753Z,11.35
2022-08-26T08:03:06.174Z,11.38
2022-08-26T08:13:29.281Z,11.20
2022-08-26T08:23:55.462Z,10.45
2022-08-26T08:34:18.358Z,11.48
2022-08-26T08:44:44.291Z,10.38
2022-08-26T08:55:18.110Z,11.73
2022-08-26T09:05:48.568Z,10.90
2022-08-26T09:16:19.073Z,11.00
2022-08-26T09:26:48.123Z,10.68
2022-08-26T09:37:09.729Z,12.93
2022-08-26T09:47:53.166Z,13.50
2022-08-26T09:58:31.112Z,14.00
2022-08-26T10:09:02.651Z,13.68
2022-08-26T10:19:55.979Z,14.68
2022-08-26T10:30:29.232Z,14.38
2022-08-26T10:40:56.660Z,14.80
2022-08-26T10:51:26.847Z,13.35
2022-08-26T11:02:08.732Z,15.45
2022-08-26T11:12:36.392Z,15.95
2022-08-26T11:23:21.220Z,16.13
2022-08-26T11:33:50.982Z,12.88
2022-08-26T11:44:18.710Z,12.20
2022-08-26T11:54:40.780Z,11.95
2022-08-26T12:05:03.070Z,10.35
2022-08-26T12:15:26.403Z,11.23
2022-08-26T12:25:54.087Z,11.18
2022-08-26T12:36:22.387Z,10.80
2022-08-26T12:46:47.887Z,10.45
2022-08-26T12:57:12.906Z,10.98
2022-08-26T13:07:34.531Z,12.27
2022-08-26T13:17:58.245Z,10.45
2022-08-26T13:28:20.132Z,9.23
2022-08-26T13:38:41.849Z,8.60
2022-08-26T13:49:10.723Z,8.15
2022-08-26T13:59:32.518Z,7.70
2022-08-26T14:09:54.493Z,7.78
2022-08-26T14:20:21.064Z,8.27
2022-08-26T14:30:47.482Z,7.15
2022-08-26T14:41:10.029Z,6.35
2022-08-26T14:51:31.734Z,5.53
2022-08-26T15:01:54.802Z,4.75
2022-08-26T15:12:16.533Z,5.28
2022-08-26T15:22:39.438Z,5.07
2022-08-26T15:33:01.047Z,4.22
2022-08-26T15:43:28.774Z,4.18
2022-08-26T15:53:51.357Z,3.60
2022-08-26T16:04:13.969Z,3.28
2022-08-26T16:14:35.547Z,2.92
2022-08-26T16:24:57.836Z,2.55
2022-08-26T16:35:19.448Z,2.47
2022-08-26T16:45:40.983Z,2.17
2022-08-26T16:56:04.108Z,2.33
2022-08-26T17:06:25.677Z,1.67
2022-08-26T17:16:51.200Z,1.92
2022-08-26T17:27:15.264Z,2.05
2022-08-26T17:37:36.909Z,1.60
2022-08-26T17:47:59.234Z,2.03
2022-08-26T17:58:23.247Z,2.17
2022-08-26T18:08:46.077Z,2.47
2022-08-26T18:19:08.295Z,2.58
2022-08-26T18:29:29.902Z,2.70
2022-08-26T18:39:51.494Z,2.67
2022-08-26T18:50:13.354Z,2.55
2022-08-26T19:00:34.895Z,3.47
2022-08-26T19:10:56.439Z,3.05
2022-08-26T19:21:19.582Z,2.90
2022-08-26T19:31:42.240Z,2.80
2022-08-26T19:42:05.802Z,2.85
2022-08-26T19:52:30.017Z,2.28
2022-08-26T20:02:52.907Z,2.22
2022-08-26T20:13:14.769Z,2.35
2022-08-26T20:23:36.988Z,2.50
2022-08-26T20:33:58.864Z,2.35
2022-08-26T20:44:22.029Z,2.20
2022-08-26T20:54:43.651Z,1.95
2022-08-26T21:05:06.358Z,2.13
2022-08-26T21:15:28.004Z,2.42
2022-08-26T21:25:49.889Z,1.98
2022-08-26T21:36:12.571Z,1.60
2022-08-26T21:46:37.408Z,2.00
2022-08-26T21:56:59.056Z,1.73
2022-08-26T22:07:21.314Z,1.60
2022-08-26T22:17:42.893Z,1.23
2022-08-26T22:28:05.020Z,1.55
2022-08-26T22:38:26.587Z,1.90
2022-08-26T22:48:53.763Z,1.20
2022-08-26T22:59:16.473Z,1.08
2022-08-26T23:09:38.055Z,1.20
2022-08-26T23:19:59.807Z,1.15
2022-08-26T23:30:25.531Z,1.20
2022-08-26T23:40:48.439Z,1.10
2022-08-26T23:51:29.869Z,1.02
